Terminal Aerodrome Forecast
Issued by NWS Wilmington, OH

Current Version | Previous Version | Graphics & Text | Print | Product List | Glossary On
Versions: 1 2 3 4 5 6 7 8 9 10 11 12 13 14 15 16 17 18 19 20 21 22 23 24 25 26 27 28 29 30 31 32 33 34 35
000
FTUS41 KILN 271457 AAA
TAFCVG
TAF AMD
KCVG 271457Z 2715/2818 02004KT P6SM SCT035 OVC140
     FM271900 VRB04KT P6SM VCTS BKN035CB BKN150
     FM272200 VRB03KT P6SM BKN120
     FM280800 00000KT 5SM BR BKN050
     FM281200 16004KT 5SM -SHRA BR VCTS OVC035CB=

USA.gov is the U.S. government's official web portal to all federal, state and local government web resources and services.